sensor_id;sensor_type;location;lat;lon;timestamp;P1;durP1;ratioP1;P2;durP2;ratioP2
18875;SDS011;9570;50.854;13.778;2023-07-20T00:00:24;5.03;;;4.00;;
18875;SDS011;9570;50.854;13.778;2023-07-20T00:02:50;4.40;;;4.00;;
18875;SDS011;9570;50.854;13.778;2023-07-20T00:05:16;4.40;;;4.00;;
18875;SDS011;9570;50.854;13.778;2023-07-20T00:07:43;5.13;;;4.23;;
18875;SDS011;9570;50.854;13.778;2023-07-20T00:10:09;4.53;;;4.13;;
18875;SDS011;9570;50.854;13.778;2023-07-20T00:12:34;4.57;;;3.90;;
18875;SDS011;9570;50.854;13.778;2023-07-20T00:15:00;8.17;;;4.33;;
18875;SDS011;9570;50.854;13.778;2023-07-20T00:17:26;4.40;;;4.00;;
18875;SDS011;9570;50.854;13.778;2023-07-20T00:19:51;4.63;;;4.03;;
18875;SDS011;9570;50.854;13.778;2023-07-20T00:22:17;4.80;;;4.13;;
18875;SDS011;9570;50.854;13.778;2023-07-20T00:24:42;4.77;;;4.33;;
18875;SDS011;9570;50.854;13.778;2023-07-20T00:27:08;7.70;;;4.50;;
18875;SDS011;9570;50.854;13.778;2023-07-20T00:29:34;6.77;;;4.83;;
18875;SDS011;9570;50.854;13.778;2023-07-20T00:32:00;5.60;;;4.17;;
18875;SDS011;9570;50.854;13.778;2023-07-20T00:34:25;6.20;;;4.70;;
18875;SDS011;9570;50.854;13.778;2023-07-20T00:36:51;4.57;;;4.13;;
18875;SDS011;9570;50.854;13.778;2023-07-20T00:39:16;8.17;;;4.80;;
18875;SDS011;9570;50.854;13.778;2023-07-20T00:41:42;5.97;;;4.27;;
18875;SDS011;9570;50.854;13.778;2023-07-20T00:44:08;4.37;;;3.70;;
18875;SDS011;9570;50.854;13.778;2023-07-20T00:46:33;4.20;;;3.80;;
18875;SDS011;9570;50.854;13.778;2023-07-20T00:48:59;4.97;;;3.80;;
18875;SDS011;9570;50.854;13.778;2023-07-20T00:51:25;5.03;;;3.47;;
18875;SDS011;9570;50.854;13.778;2023-07-20T00:53:51;5.47;;;3.53;;
18875;SDS011;9570;50.854;13.778;2023-07-20T00:56:18;6.27;;;3.90;;
18875;SDS011;9570;50.854;13.778;2023-07-20T00:58:44;6.77;;;3.50;;
18875;SDS011;9570;50.854;13.778;2023-07-20T01:01:10;5.10;;;3.27;;
18875;SDS011;9570;50.854;13.778;2023-07-20T01:03:35;4.03;;;3.63;;
18875;SDS011;9570;50.854;13.778;2023-07-20T01:09:18;4.73;;;3.37;;
18875;SDS011;9570;50.854;13.778;2023-07-20T01:14:34;4.10;;;3.10;;
18875;SDS011;9570;50.854;13.778;2023-07-20T01:17:01;4.97;;;3.93;;
18875;SDS011;9570;50.854;13.778;2023-07-20T01:19:27;3.80;;;3.20;;
18875;SDS011;9570;50.854;13.778;2023-07-20T01:21:55;8.17;;;3.20;;
18875;SDS011;9570;50.854;13.778;2023-07-20T01:27:19;8.27;;;3.93;;
18875;SDS011;9570;50.854;13.778;2023-07-20T01:30:08;5.10;;;3.60;;
18875;SDS011;9570;50.854;13.778;2023-07-20T01:32:57;3.53;;;3.10;;
18875;SDS011;9570;50.854;13.778;2023-07-20T01:35:26;6.17;;;3.50;;
18875;SDS011;9570;50.854;13.778;2023-07-20T01:37:53;5.97;;;3.70;;
18875;SDS011;9570;50.854;13.778;2023-07-20T01:40:20;5.77;;;3.40;;
18875;SDS011;9570;50.854;13.778;2023-07-20T01:42:47;4.67;;;3.43;;
18875;SDS011;9570;50.854;13.778;2023-07-20T01:45:13;9.73;;;3.73;;
18875;SDS011;9570;50.854;13.778;2023-07-20T01:47:38;3.83;;;3.20;;
18875;SDS011;9570;50.854;13.778;2023-07-20T01:50:04;8.67;;;3.10;;
18875;SDS011;9570;50.854;13.778;2023-07-20T01:52:30;4.93;;;3.57;;
18875;SDS011;9570;50.854;13.778;2023-07-20T01:54:56;6.87;;;3.70;;
18875;SDS011;9570;50.854;13.778;2023-07-20T01:57:21;4.30;;;3.43;;
18875;SDS011;9570;50.854;13.778;2023-07-20T01:59:47;7.23;;;3.93;;
18875;SDS011;9570;50.854;13.778;2023-07-20T02:02:12;4.90;;;3.67;;
18875;SDS011;9570;50.854;13.778;2023-07-20T02:04:38;4.47;;;3.83;;
18875;SDS011;9570;50.854;13.778;2023-07-20T02:07:03;6.60;;;3.70;;
18875;SDS011;9570;50.854;13.778;2023-07-20T02:09:29;7.77;;;4.10;;
18875;SDS011;9570;50.854;13.778;2023-07-20T02:11:55;4.03;;;3.63;;
18875;SDS011;9570;50.854;13.778;2023-07-20T02:14:20;5.70;;;4.03;;
18875;SDS011;9570;50.854;13.778;2023-07-20T02:16:47;6.17;;;4.07;;
18875;SDS011;9570;50.854;13.778;2023-07-20T02:19:17;4.47;;;3.87;;
18875;SDS011;9570;50.854;13.778;2023-07-20T02:21:43;5.33;;;4.20;;
18875;SDS011;9570;50.854;13.778;2023-07-20T02:24:09;9.97;;;4.67;;
18875;SDS011;9570;50.854;13.778;2023-07-20T02:26:34;5.40;;;3.90;;
18875;SDS011;9570;50.854;13.778;2023-07-20T02:29:00;5.23;;;4.73;;
18875;SDS011;9570;50.854;13.778;2023-07-20T02:31:25;5.43;;;4.33;;
18875;SDS011;9570;50.854;13.778;2023-07-20T02:33:51;6.73;;;4.60;;
18875;SDS011;9570;50.854;13.778;2023-07-20T02:36:16;5.03;;;4.47;;
18875;SDS011;9570;50.854;13.778;2023-07-20T02:38:42;6.17;;;4.70;;
18875;SDS011;9570;50.854;13.778;2023-07-20T02:41:08;7.20;;;4.73;;
18875;SDS011;9570;50.854;13.778;2023-07-20T02:43:33;6.23;;;4.60;;
18875;SDS011;9570;50.854;13.778;2023-07-20T02:45:59;7.90;;;5.23;;
18875;SDS011;9570;50.854;13.778;2023-07-20T02:48:24;8.57;;;5.27;;
18875;SDS011;9570;50.854;13.778;2023-07-20T02:50:50;6.53;;;4.87;;
18875;SDS011;9570;50.854;13.778;2023-07-20T02:53:15;7.07;;;4.83;;
18875;SDS011;9570;50.854;13.778;2023-07-20T02:55:41;5.50;;;4.43;;
18875;SDS011;9570;50.854;13.778;2023-07-20T02:58:06;8.40;;;4.47;;
18875;SDS011;9570;50.854;13.778;2023-07-20T03:00:32;5.00;;;4.60;;
18875;SDS011;9570;50.854;13.778;2023-07-20T03:02:58;7.17;;;4.87;;
18875;SDS011;9570;50.854;13.778;2023-07-20T03:05:23;9.50;;;4.70;;
18875;SDS011;9570;50.854;13.778;2023-07-20T03:07:50;6.73;;;4.80;;
18875;SDS011;9570;50.854;13.778;2023-07-20T03:10:16;5.23;;;4.43;;
18875;SDS011;9570;50.854;13.778;2023-07-20T03:12:41;6.37;;;4.87;;
18875;SDS011;9570;50.854;13.778;2023-07-20T03:15:07;5.63;;;4.87;;
18875;SDS011;9570;50.854;13.778;2023-07-20T03:17:33;7.03;;;4.57;;
18875;SDS011;9570;50.854;13.778;2023-07-20T03:19:59;5.13;;;4.50;;
18875;SDS011;9570;50.854;13.778;2023-07-20T03:22:25;5.77;;;4.60;;
18875;SDS011;9570;50.854;13.778;2023-07-20T03:24:51;6.67;;;4.60;;
18875;SDS011;9570;50.854;13.778;2023-07-20T03:27:17;6.73;;;4.80;;
18875;SDS011;9570;50.854;13.778;2023-07-20T03:29:43;6.27;;;4.53;;
18875;SDS011;9570;50.854;13.778;2023-07-20T03:32:09;11.97;;;4.40;;
18875;SDS011;9570;50.854;13.778;2023-07-20T03:34:34;7.57;;;4.30;;
18875;SDS011;9570;50.854;13.778;2023-07-20T03:37:00;9.87;;;4.60;;
18875;SDS011;9570;50.854;13.778;2023-07-20T03:39:26;5.80;;;4.17;;
18875;SDS011;9570;50.854;13.778;2023-07-20T03:41:52;5.70;;;4.37;;
18875;SDS011;9570;50.854;13.778;2023-07-20T03:44:17;5.13;;;4.00;;
18875;SDS011;9570;50.854;13.778;2023-07-20T03:46:43;6.07;;;3.93;;
18875;SDS011;9570;50.854;13.778;2023-07-20T03:49:09;5.87;;;3.97;;
18875;SDS011;9570;50.854;13.778;2023-07-20T03:51:35;5.37;;;3.93;;
18875;SDS011;9570;50.854;13.778;2023-07-20T03:54:00;5.53;;;4.23;;
18875;SDS011;9570;50.854;13.778;2023-07-20T03:56:26;7.13;;;4.50;;
18875;SDS011;9570;50.854;13.778;2023-07-20T03:58:51;5.00;;;4.50;;
18875;SDS011;9570;50.854;13.778;2023-07-20T04:01:17;4.73;;;4.33;;
18875;SDS011;9570;50.854;13.778;2023-07-20T04:03:43;6.30;;;4.50;;
18875;SDS011;9570;50.854;13.778;2023-07-20T04:06:08;8.50;;;4.00;;
18875;SDS011;9570;50.854;13.778;2023-07-20T04:08:35;6.13;;;4.10;;
18875;SDS011;9570;50.854;13.778;2023-07-20T04:11:02;6.23;;;4.33;;
18875;SDS011;9570;50.854;13.778;2023-07-20T04:13:27;6.53;;;4.23;;
18875;SDS011;9570;50.854;13.778;2023-07-20T04:15:53;6.10;;;4.50;;
18875;SDS011;9570;50.854;13.778;2023-07-20T04:18:20;9.17;;;3.80;;
18875;SDS011;9570;50.854;13.778;2023-07-20T04:20:45;5.93;;;4.30;;
18875;SDS011;9570;50.854;13.778;2023-07-20T04:23:11;6.80;;;4.43;;
18875;SDS011;9570;50.854;13.778;2023-07-20T04:25:38;7.70;;;3.73;;
18875;SDS011;9570;50.854;13.778;2023-07-20T04:28:05;4.97;;;4.10;;
18875;SDS011;9570;50.854;13.778;2023-07-20T04:30:35;4.90;;;4.37;;
18875;SDS011;9570;50.854;13.778;2023-07-20T04:33:01;6.27;;;4.40;;
18875;SDS011;9570;50.854;13.778;2023-07-20T04:38:18;6.10;;;4.40;;
18875;SDS011;9570;50.854;13.778;2023-07-20T04:40:45;5.73;;;4.03;;
18875;SDS011;9570;50.854;13.778;2023-07-20T04:43:11;6.63;;;4.30;;
18875;SDS011;9570;50.854;13.778;2023-07-20T04:45:37;4.40;;;4.00;;
18875;SDS011;9570;50.854;13.778;2023-07-20T04:48:05;5.83;;;5.00;;
18875;SDS011;9570;50.854;13.778;2023-07-20T04:50:36;6.87;;;4.97;;
18875;SDS011;9570;50.854;13.778;2023-07-20T04:53:01;10.00;;;5.57;;
18875;SDS011;9570;50.854;13.778;2023-07-20T04:55:27;7.30;;;6.47;;
18875;SDS011;9570;50.854;13.778;2023-07-20T04:57:53;6.70;;;6.10;;
18875;SDS011;9570;50.854;13.778;2023-07-20T05:00:18;8.83;;;7.53;;
18875;SDS011;9570;50.854;13.778;2023-07-20T05:02:44;9.27;;;7.13;;
18875;SDS011;9570;50.854;13.778;2023-07-20T05:05:12;9.43;;;7.40;;
18875;SDS011;9570;50.854;13.778;2023-07-20T05:07:38;9.87;;;7.97;;
18875;SDS011;9570;50.854;13.778;2023-07-20T05:10:03;9.37;;;8.37;;
18875;SDS011;9570;50.854;13.778;2023-07-20T05:12:29;9.07;;;7.60;;
18875;SDS011;9570;50.854;13.778;2023-07-20T05:14:55;8.73;;;7.83;;
18875;SDS011;9570;50.854;13.778;2023-07-20T05:17:20;9.53;;;8.47;;
18875;SDS011;9570;50.854;13.778;2023-07-20T05:19:46;10.27;;;9.27;;
18875;SDS011;9570;50.854;13.778;2023-07-20T05:22:13;10.43;;;9.27;;
18875;SDS011;9570;50.854;13.778;2023-07-20T05:24:38;11.23;;;10.03;;
18875;SDS011;9570;50.854;13.778;2023-07-20T05:27:04;14.13;;;9.03;;
18875;SDS011;9570;50.854;13.778;2023-07-20T05:29:30;10.03;;;8.53;;
18875;SDS011;9570;50.854;13.778;2023-07-20T05:31:55;9.37;;;8.37;;
18875;SDS011;9570;50.854;13.778;2023-07-20T05:34:21;10.90;;;8.17;;
18875;SDS011;9570;50.854;13.778;2023-07-20T05:36:46;8.83;;;7.93;;
18875;SDS011;9570;50.854;13.778;2023-07-20T05:39:12;12.20;;;8.17;;
18875;SDS011;9570;50.854;13.778;2023-07-20T05:41:37;9.57;;;8.57;;
18875;SDS011;9570;50.854;13.778;2023-07-20T05:44:03;8.60;;;7.70;;
18875;SDS011;9570;50.854;13.778;2023-07-20T05:46:28;12.27;;;8.23;;
18875;SDS011;9570;50.854;13.778;2023-07-20T05:48:54;8.37;;;7.17;;
18875;SDS011;9570;50.854;13.778;2023-07-20T05:51:19;8.07;;;7.27;;
18875;SDS011;9570;50.854;13.778;2023-07-20T05:53:45;9.20;;;6.23;;
18875;SDS011;9570;50.854;13.778;2023-07-20T05:56:10;8.93;;;6.80;;
18875;SDS011;9570;50.854;13.778;2023-07-20T05:58:36;7.87;;;7.10;;
18875;SDS011;9570;50.854;13.778;2023-07-20T06:01:03;9.33;;;6.87;;
18875;SDS011;9570;50.854;13.778;2023-07-20T06:03:30;10.97;;;7.13;;
18875;SDS011;9570;50.854;13.778;2023-07-20T06:05:59;9.97;;;6.70;;
18875;SDS011;9570;50.854;13.778;2023-07-20T06:08:26;8.70;;;5.90;;
18875;SDS011;9570;50.854;13.778;2023-07-20T06:10:52;7.37;;;6.60;;
18875;SDS011;9570;50.854;13.778;2023-07-20T06:13:17;7.40;;;6.63;;
18875;SDS011;9570;50.854;13.778;2023-07-20T06:15:43;6.73;;;6.13;;
18875;SDS011;9570;50.854;13.778;2023-07-20T06:18:08;7.67;;;6.30;;
18875;SDS011;9570;50.854;13.778;2023-07-20T06:20:34;8.67;;;5.90;;
18875;SDS011;9570;50.854;13.778;2023-07-20T06:22:59;6.20;;;5.60;;
18875;SDS011;9570;50.854;13.778;2023-07-20T06:25:25;6.73;;;5.97;;
18875;SDS011;9570;50.854;13.778;2023-07-20T06:27:50;6.03;;;5.53;;
18875;SDS011;9570;50.854;13.778;2023-07-20T06:30:16;6.93;;;6.20;;
18875;SDS011;9570;50.854;13.778;2023-07-20T06:32:42;6.00;;;5.40;;
18875;SDS011;9570;50.854;13.778;2023-07-20T06:35:08;7.30;;;5.50;;
18875;SDS011;9570;50.854;13.778;2023-07-20T06:37:34;6.20;;;5.03;;
18875;SDS011;9570;50.854;13.778;2023-07-20T06:40:00;7.10;;;6.40;;
18875;SDS011;9570;50.854;13.778;2023-07-20T06:42:26;7.20;;;5.53;;
18875;SDS011;9570;50.854;13.778;2023-07-20T06:44:52;7.50;;;6.80;;
18875;SDS011;9570;50.854;13.778;2023-07-20T06:47:17;8.93;;;7.73;;
18875;SDS011;9570;50.854;13.778;2023-07-20T06:49:43;9.47;;;7.57;;
18875;SDS011;9570;50.854;13.778;2023-07-20T06:52:08;8.50;;;7.70;;
18875;SDS011;9570;50.854;13.778;2023-07-20T06:54:34;8.93;;;8.07;;
18875;SDS011;9570;50.854;13.778;2023-07-20T06:56:59;8.53;;;7.73;;
18875;SDS011;9570;50.854;13.778;2023-07-20T06:59:25;7.90;;;7.20;;
18875;SDS011;9570;50.854;13.778;2023-07-20T07:01:50;6.17;;;4.80;;
18875;SDS011;9570;50.854;13.778;2023-07-20T07:04:16;6.20;;;4.17;;
18875;SDS011;9570;50.854;13.778;2023-07-20T07:06:41;7.03;;;3.60;;
18875;SDS011;9570;50.854;13.778;2023-07-20T07:09:07;4.87;;;3.20;;
18875;SDS011;9570;50.854;13.778;2023-07-20T07:11:33;3.73;;;2.53;;
18875;SDS011;9570;50.854;13.778;2023-07-20T07:13:59;3.67;;;3.10;;
18875;SDS011;9570;50.854;13.778;2023-07-20T07:16:24;4.00;;;2.83;;
18875;SDS011;9570;50.854;13.778;2023-07-20T07:18:50;3.03;;;2.57;;
18875;SDS011;9570;50.854;13.778;2023-07-20T07:21:16;5.13;;;2.87;;
18875;SDS011;9570;50.854;13.778;2023-07-20T07:23:42;3.80;;;2.50;;
18875;SDS011;9570;50.854;13.778;2023-07-20T07:26:08;3.90;;;2.50;;
18875;SDS011;9570;50.854;13.778;2023-07-20T07:28:34;2.53;;;2.33;;
18875;SDS011;9570;50.854;13.778;2023-07-20T07:31:00;2.50;;;2.30;;
18875;SDS011;9570;50.854;13.778;2023-07-20T07:33:25;2.10;;;2.00;;
18875;SDS011;9570;50.854;13.778;2023-07-20T07:35:51;3.07;;;2.30;;
18875;SDS011;9570;50.854;13.778;2023-07-20T07:38:20;2.67;;;2.07;;
18875;SDS011;9570;50.854;13.778;2023-07-20T07:40:45;1.80;;;1.70;;
18875;SDS011;9570;50.854;13.778;2023-07-20T07:43:11;2.30;;;1.93;;
18875;SDS011;9570;50.854;13.778;2023-07-20T07:45:39;1.93;;;1.60;;
18875;SDS011;9570;50.854;13.778;2023-07-20T07:48:05;3.17;;;1.70;;
18875;SDS011;9570;50.854;13.778;2023-07-20T07:50:31;2.33;;;1.83;;
18875;SDS011;9570;50.854;13.778;2023-07-20T07:52:57;2.63;;;1.73;;
18875;SDS011;9570;50.854;13.778;2023-07-20T07:55:23;2.87;;;1.80;;
18875;SDS011;9570;50.854;13.778;2023-07-20T07:57:51;1.83;;;1.73;;
18875;SDS011;9570;50.854;13.778;2023-07-20T08:00:17;2.13;;;2.00;;
18875;SDS011;9570;50.854;13.778;2023-07-20T08:02:44;3.00;;;2.00;;
18875;SDS011;9570;50.854;13.778;2023-07-20T08:05:10;2.10;;;1.70;;
18875;SDS011;9570;50.854;13.778;2023-07-20T08:07:36;2.90;;;2.00;;
18875;SDS011;9570;50.854;13.778;2023-07-20T08:10:02;2.03;;;1.80;;
18875;SDS011;9570;50.854;13.778;2023-07-20T08:12:29;3.17;;;2.07;;
18875;SDS011;9570;50.854;13.778;2023-07-20T08:14:54;2.27;;;1.80;;
18875;SDS011;9570;50.854;13.778;2023-07-20T08:17:19;1.77;;;1.67;;
18875;SDS011;9570;50.854;13.778;2023-07-20T08:19:46;1.97;;;1.60;;
18875;SDS011;9570;50.854;13.778;2023-07-20T08:22:11;2.37;;;1.50;;
18875;SDS011;9570;50.854;13.778;2023-07-20T08:24:40;2.20;;;1.67;;
18875;SDS011;9570;50.854;13.778;2023-07-20T08:27:06;4.03;;;1.90;;
18875;SDS011;9570;50.854;13.778;2023-07-20T08:29:32;2.50;;;2.00;;
18875;SDS011;9570;50.854;13.778;2023-07-20T08:31:57;2.07;;;1.80;;
18875;SDS011;9570;50.854;13.778;2023-07-20T08:34:23;2.00;;;1.70;;
18875;SDS011;9570;50.854;13.778;2023-07-20T08:36:48;1.93;;;1.63;;
18875;SDS011;9570;50.854;13.778;2023-07-20T08:39:14;2.10;;;1.90;;
18875;SDS011;9570;50.854;13.778;2023-07-20T08:41:40;2.33;;;2.00;;
18875;SDS011;9570;50.854;13.778;2023-07-20T08:44:09;3.73;;;2.00;;
18875;SDS011;9570;50.854;13.778;2023-07-20T08:46:36;1.90;;;1.80;;
18875;SDS011;9570;50.854;13.778;2023-07-20T08:49:03;2.10;;;1.90;;
18875;SDS011;9570;50.854;13.778;2023-07-20T08:51:30;3.67;;;2.17;;
18875;SDS011;9570;50.854;13.778;2023-07-20T08:53:56;2.07;;;1.93;;
18875;SDS011;9570;50.854;13.778;2023-07-20T08:56:21;2.30;;;2.10;;
18875;SDS011;9570;50.854;13.778;2023-07-20T08:58:50;2.37;;;1.80;;
18875;SDS011;9570;50.854;13.778;2023-07-20T09:01:17;2.20;;;1.87;;
18875;SDS011;9570;50.854;13.778;2023-07-20T09:03:44;1.93;;;1.80;;
18875;SDS011;9570;50.854;13.778;2023-07-20T09:06:11;2.60;;;2.00;;
18875;SDS011;9570;50.854;13.778;2023-07-20T09:08:37;2.97;;;2.10;;
18875;SDS011;9570;50.854;13.778;2023-07-20T09:11:04;3.23;;;2.40;;
18875;SDS011;9570;50.854;13.778;2023-07-20T09:13:29;2.23;;;1.90;;
18875;SDS011;9570;50.854;13.778;2023-07-20T09:15:54;4.20;;;2.30;;
18875;SDS011;9570;50.854;13.778;2023-07-20T09:18:30;3.63;;;1.90;;
18875;SDS011;9570;50.854;13.778;2023-07-20T09:21:03;2.23;;;1.80;;
18875;SDS011;9570;50.854;13.778;2023-07-20T09:23:33;2.37;;;1.80;;
18875;SDS011;9570;50.854;13.778;2023-07-20T09:26:00;2.00;;;1.80;;
18875;SDS011;9570;50.854;13.778;2023-07-20T09:28:41;1.63;;;1.53;;
18875;SDS011;9570;50.854;13.778;2023-07-20T09:31:20;1.60;;;1.50;;
18875;SDS011;9570;50.854;13.778;2023-07-20T09:33:47;2.10;;;1.90;;
18875;SDS011;9570;50.854;13.778;2023-07-20T09:36:13;2.50;;;1.40;;
18875;SDS011;9570;50.854;13.778;2023-07-20T09:38:40;2.10;;;1.40;;
18875;SDS011;9570;50.854;13.778;2023-07-20T09:41:12;2.53;;;1.70;;
18875;SDS011;9570;50.854;13.778;2023-07-20T09:43:43;2.67;;;1.90;;
18875;SDS011;9570;50.854;13.778;2023-07-20T09:46:10;4.40;;;1.70;;
18875;SDS011;9570;50.854;13.778;2023-07-20T09:48:36;3.17;;;2.00;;
18875;SDS011;9570;50.854;13.778;2023-07-20T09:51:01;2.70;;;2.00;;
18875;SDS011;9570;50.854;13.778;2023-07-20T09:53:28;2.20;;;2.00;;
18875;SDS011;9570;50.854;13.778;2023-07-20T09:55:54;1.80;;;1.70;;
18875;SDS011;9570;50.854;13.778;2023-07-20T09:58:21;2.50;;;1.97;;
18875;SDS011;9570;50.854;13.778;2023-07-20T10:00:47;2.57;;;1.70;;
18875;SDS011;9570;50.854;13.778;2023-07-20T10:03:20;2.53;;;1.70;;
18875;SDS011;9570;50.854;13.778;2023-07-20T10:05:52;2.33;;;1.60;;
18875;SDS011;9570;50.854;13.778;2023-07-20T10:08:41;2.50;;;1.70;;
18875;SDS011;9570;50.854;13.778;2023-07-20T10:11:08;2.07;;;1.73;;
18875;SDS011;9570;50.854;13.778;2023-07-20T10:13:37;3.97;;;1.70;;
18875;SDS011;9570;50.854;13.778;2023-07-20T10:16:07;2.23;;;1.70;;
18875;SDS011;9570;50.854;13.778;2023-07-20T10:21:37;2.40;;;1.50;;
18875;SDS011;9570;50.854;13.778;2023-07-20T10:24:07;3.50;;;1.57;;
18875;SDS011;9570;50.854;13.778;2023-07-20T10:26:33;2.53;;;1.50;;
18875;SDS011;9570;50.854;13.778;2023-07-20T10:29:00;2.72;;;1.45;;
18875;SDS011;9570;50.854;13.778;2023-07-20T10:31:26;1.65;;;1.20;;
18875;SDS011;9570;50.854;13.778;2023-07-20T10:33:53;1.77;;;1.35;;
18875;SDS011;9570;50.854;13.778;2023-07-20T10:36:24;1.33;;;1.23;;
18875;SDS011;9570;50.854;13.778;2023-07-20T10:38:53;3.37;;;1.50;;
18875;SDS011;9570;50.854;13.778;2023-07-20T10:41:20;2.90;;;1.60;;
18875;SDS011;9570;50.854;13.778;2023-07-20T10:43:49;1.80;;;1.63;;
18875;SDS011;9570;50.854;13.778;2023-07-20T10:46:33;2.23;;;1.40;;
18875;SDS011;9570;50.854;13.778;2023-07-20T10:49:08;1.73;;;1.40;;
18875;SDS011;9570;50.854;13.778;2023-07-20T10:51:41;2.23;;;1.50;;
18875;SDS011;9570;50.854;13.778;2023-07-20T10:54:08;1.73;;;1.60;;
18875;SDS011;9570;50.854;13.778;2023-07-20T10:56:43;2.20;;;1.43;;
18875;SDS011;9570;50.854;13.778;2023-07-20T10:59:19;3.00;;;1.90;;
18875;SDS011;9570;50.854;13.778;2023-07-20T11:02:00;3.40;;;1.60;;
18875;SDS011;9570;50.854;13.778;2023-07-20T11:04:38;2.90;;;1.77;;
18875;SDS011;9570;50.854;13.778;2023-07-20T11:07:04;1.97;;;1.70;;
18875;SDS011;9570;50.854;13.778;2023-07-20T11:09:33;1.60;;;1.50;;
18875;SDS011;9570;50.854;13.778;2023-07-20T11:12:15;2.07;;;1.63;;
18875;SDS011;9570;50.854;13.778;2023-07-20T11:14:43;2.37;;;1.70;;
18875;SDS011;9570;50.854;13.778;2023-07-20T11:17:19;3.50;;;1.80;;
18875;SDS011;9570;50.854;13.778;2023-07-20T11:19:55;2.53;;;1.80;;
18875;SDS011;9570;50.854;13.778;2023-07-20T11:22:21;3.80;;;1.60;;
18875;SDS011;9570;50.854;13.778;2023-07-20T11:24:47;2.00;;;1.67;;
18875;SDS011;9570;50.854;13.778;2023-07-20T11:27:14;2.67;;;1.70;;
18875;SDS011;9570;50.854;13.778;2023-07-20T11:29:40;4.70;;;1.80;;
18875;SDS011;9570;50.854;13.778;2023-07-20T11:32:06;3.47;;;1.57;;
18875;SDS011;9570;50.854;13.778;2023-07-20T11:34:33;1.60;;;1.50;;
18875;SDS011;9570;50.854;13.778;2023-07-20T11:37:00;3.13;;;1.90;;
18875;SDS011;9570;50.854;13.778;2023-07-20T11:39:26;2.37;;;1.90;;
18875;SDS011;9570;50.854;13.778;2023-07-20T11:41:52;2.57;;;2.00;;
18875;SDS011;9570;50.854;13.778;2023-07-20T11:44:20;4.13;;;2.10;;
18875;SDS011;9570;50.854;13.778;2023-07-20T11:47:03;5.63;;;1.97;;
18875;SDS011;9570;50.854;13.778;2023-07-20T11:49:41;3.70;;;1.60;;
18875;SDS011;9570;50.854;13.778;2023-07-20T11:52:09;3.03;;;1.77;;
18875;SDS011;9570;50.854;13.778;2023-07-20T11:54:37;3.20;;;1.80;;
18875;SDS011;9570;50.854;13.778;2023-07-20T11:57:04;3.00;;;1.90;;
18875;SDS011;9570;50.854;13.778;2023-07-20T11:59:30;1.90;;;1.57;;
18875;SDS011;9570;50.854;13.778;2023-07-20T12:01:56;3.17;;;1.50;;
18875;SDS011;9570;50.854;13.778;2023-07-20T12:04:22;3.30;;;1.70;;
18875;SDS011;9570;50.854;13.778;2023-07-20T12:06:48;3.07;;;1.63;;
18875;SDS011;9570;50.854;13.778;2023-07-20T12:09:14;3.37;;;1.70;;
18875;SDS011;9570;50.854;13.778;2023-07-20T12:11:42;1.80;;;1.43;;
18875;SDS011;9570;50.854;13.778;2023-07-20T12:14:09;2.97;;;1.77;;
18875;SDS011;9570;50.854;13.778;2023-07-20T12:16:36;3.17;;;1.40;;
18875;SDS011;9570;50.854;13.778;2023-07-20T12:19:06;3.30;;;1.70;;
18875;SDS011;9570;50.854;13.778;2023-07-20T12:21:33;1.47;;;1.30;;
18875;SDS011;9570;50.854;13.778;2023-07-20T12:24:01;1.97;;;1.60;;
18875;SDS011;9570;50.854;13.778;2023-07-20T12:26:28;2.73;;;1.40;;
18875;SDS011;9570;50.854;13.778;2023-07-20T12:28:55;2.07;;;1.37;;
18875;SDS011;9570;50.854;13.778;2023-07-20T12:31:20;1.93;;;1.40;;
18875;SDS011;9570;50.854;13.778;2023-07-20T12:33:47;2.33;;;1.60;;
18875;SDS011;9570;50.854;13.778;2023-07-20T12:36:13;2.37;;;1.37;;
18875;SDS011;9570;50.854;13.778;2023-07-20T12:38:38;2.30;;;1.57;;
18875;SDS011;9570;50.854;13.778;2023-07-20T12:41:04;4.30;;;1.63;;
18875;SDS011;9570;50.854;13.778;2023-07-20T12:43:29;4.20;;;2.40;;
18875;SDS011;9570;50.854;13.778;2023-07-20T12:45:56;4.47;;;2.13;;
18875;SDS011;9570;50.854;13.778;2023-07-20T12:48:22;3.67;;;3.07;;
18875;SDS011;9570;50.854;13.778;2023-07-20T12:50:48;3.90;;;3.13;;
18875;SDS011;9570;50.854;13.778;2023-07-20T12:53:14;3.90;;;3.07;;
18875;SDS011;9570;50.854;13.778;2023-07-20T12:55:39;3.70;;;3.40;;
18875;SDS011;9570;50.854;13.778;2023-07-20T12:58:06;4.23;;;3.90;;
18875;SDS011;9570;50.854;13.778;2023-07-20T13:00:32;3.80;;;3.47;;
18875;SDS011;9570;50.854;13.778;2023-07-20T13:02:57;3.80;;;2.30;;
18875;SDS011;9570;50.854;13.778;2023-07-20T13:05:23;2.27;;;2.07;;
18875;SDS011;9570;50.854;13.778;2023-07-20T13:07:49;3.03;;;2.10;;
18875;SDS011;9570;50.854;13.778;2023-07-20T13:10:14;1.90;;;1.60;;
18875;SDS011;9570;50.854;13.778;2023-07-20T13:12:40;4.30;;;2.00;;
18875;SDS011;9570;50.854;13.778;2023-07-20T13:15:06;2.50;;;1.80;;
18875;SDS011;9570;50.854;13.778;2023-07-20T13:17:33;2.23;;;1.70;;
18875;SDS011;9570;50.854;13.778;2023-07-20T13:20:00;5.67;;;1.80;;
18875;SDS011;9570;50.854;13.778;2023-07-20T13:22:26;4.20;;;1.70;;
18875;SDS011;9570;50.854;13.778;2023-07-20T13:24:52;1.80;;;1.70;;
18875;SDS011;9570;50.854;13.778;2023-07-20T13:27:18;1.90;;;1.63;;
18875;SDS011;9570;50.854;13.778;2023-07-20T13:29:44;1.63;;;1.40;;
18875;SDS011;9570;50.854;13.778;2023-07-20T13:32:10;1.73;;;1.63;;
18875;SDS011;9570;50.854;13.778;2023-07-20T13:34:38;2.43;;;1.37;;
18875;SDS011;9570;50.854;13.778;2023-07-20T13:37:03;1.90;;;1.50;;
18875;SDS011;9570;50.854;13.778;2023-07-20T13:39:29;2.17;;;1.60;;
18875;SDS011;9570;50.854;13.778;2023-07-20T13:41:55;2.13;;;1.60;;
18875;SDS011;9570;50.854;13.778;2023-07-20T13:44:20;1.73;;;1.63;;
18875;SDS011;9570;50.854;13.778;2023-07-20T13:46:46;2.20;;;1.80;;
18875;SDS011;9570;50.854;13.778;2023-07-20T13:49:12;1.70;;;1.60;;
18875;SDS011;9570;50.854;13.778;2023-07-20T13:51:38;2.43;;;1.60;;
18875;SDS011;9570;50.854;13.778;2023-07-20T13:54:05;1.90;;;1.70;;
18875;SDS011;9570;50.854;13.778;2023-07-20T13:56:31;2.77;;;1.60;;
18875;SDS011;9570;50.854;13.778;2023-07-20T13:58:56;3.47;;;1.70;;
18875;SDS011;9570;50.854;13.778;2023-07-20T14:01:22;1.60;;;1.50;;
18875;SDS011;9570;50.854;13.778;2023-07-20T14:03:49;1.77;;;1.60;;
18875;SDS011;9570;50.854;13.778;2023-07-20T14:06:15;2.77;;;1.70;;
18875;SDS011;9570;50.854;13.778;2023-07-20T14:08:41;1.77;;;1.40;;
18875;SDS011;9570;50.854;13.778;2023-07-20T14:11:06;2.63;;;1.70;;
18875;SDS011;9570;50.854;13.778;2023-07-20T14:13:32;3.27;;;1.67;;
18875;SDS011;9570;50.854;13.778;2023-07-20T14:15:58;1.83;;;1.60;;
18875;SDS011;9570;50.854;13.778;2023-07-20T14:18:23;1.60;;;1.50;;
18875;SDS011;9570;50.854;13.778;2023-07-20T14:20:49;1.60;;;1.50;;
18875;SDS011;9570;50.854;13.778;2023-07-20T14:23:14;1.47;;;1.37;;
18875;SDS011;9570;50.854;13.778;2023-07-20T14:25:40;1.73;;;1.57;;
18875;SDS011;9570;50.854;13.778;2023-07-20T14:28:05;2.03;;;1.60;;
18875;SDS011;9570;50.854;13.778;2023-07-20T14:30:32;1.67;;;1.43;;
18875;SDS011;9570;50.854;13.778;2023-07-20T14:32:57;2.53;;;1.80;;
18875;SDS011;9570;50.854;13.778;2023-07-20T14:35:23;1.40;;;1.30;;
18875;SDS011;9570;50.854;13.778;2023-07-20T14:37:48;1.90;;;1.40;;
18875;SDS011;9570;50.854;13.778;2023-07-20T14:40:15;1.60;;;1.50;;
18875;SDS011;9570;50.854;13.778;2023-07-20T14:42:40;1.40;;;1.30;;
18875;SDS011;9570;50.854;13.778;2023-07-20T14:45:06;1.30;;;1.20;;
18875;SDS011;9570;50.854;13.778;2023-07-20T14:47:33;1.93;;;1.60;;
18875;SDS011;9570;50.854;13.778;2023-07-20T14:50:00;1.30;;;1.20;;
18875;SDS011;9570;50.854;13.778;2023-07-20T14:52:27;2.13;;;1.27;;
18875;SDS011;9570;50.854;13.778;2023-07-20T14:54:53;1.63;;;1.37;;
18875;SDS011;9570;50.854;13.778;2023-07-20T14:57:19;1.87;;;1.30;;
18875;SDS011;9570;50.854;13.778;2023-07-20T14:59:45;1.93;;;1.20;;